createdAt,value
2018-08-25T00:00:16.890Z,57.51
2018-08-25T00:02:45.206Z,57.70
2018-08-25T00:05:13.561Z,56.93
2018-08-25T00:07:41.895Z,57.10
2018-08-25T00:10:10.213Z,57.19
2018-08-25T00:12:38.509Z,56.45
2018-08-25T00:15:06.864Z,56.64
2018-08-25T00:17:35.152Z,56.38
2018-08-25T00:20:03.562Z,56.73
2018-08-25T00:22:31.871Z,56.08
2018-08-25T00:25:00.187Z,56.11
2018-08-25T00:27:28.611Z,56.49
2018-08-25T00:29:57.214Z,56.23
2018-08-25T00:32:25.524Z,56.59
2018-08-25T00:34:53.887Z,56.76
2018-08-25T00:37:22.229Z,56.08
2018-08-25T00:39:50.529Z,56.14
2018-08-25T00:42:18.824Z,56.65
2018-08-25T00:44:47.247Z,56.43
2018-08-25T00:47:15.734Z,56.55
2018-08-25T00:49:44.040Z,56.63
2018-08-25T00:52:12.392Z,56.29
2018-08-25T00:54:40.713Z,56.62
2018-08-25T00:57:08.996Z,56.58
2018-08-25T00:59:37.317Z,56.63
2018-08-25T01:02:05.617Z,56.35
2018-08-25T01:04:33.945Z,56.47
2018-08-25T01:07:02.238Z,56.63
2018-08-25T01:09:30.527Z,57.13
2018-08-25T01:11:58.869Z,57.30
2018-08-25T01:14:27.285Z,57.58
2018-08-25T01:16:55.575Z,56.87
2018-08-25T01:19:23.870Z,56.78
2018-08-25T01:21:52.183Z,56.91
2018-08-25T01:24:20.556Z,57.46
2018-08-25T01:26:48.881Z,57.59
2018-08-25T01:29:17.202Z,56.85
2018-08-25T01:31:45.536Z,57.62
2018-08-25T01:34:13.872Z,57.43
2018-08-25T01:36:42.187Z,57.52
2018-08-25T01:39:10.544Z,57.10
2018-08-25T01:41:38.927Z,57.94
2018-08-25T01:44:07.360Z,57.95
2018-08-25T01:46:35.786Z,57.92
2018-08-25T01:49:04.115Z,57.63
2018-08-25T01:51:32.438Z,57.91
2018-08-25T01:54:00.870Z,57.54
2018-08-25T01:56:29.160Z,56.99
2018-08-25T01:58:57.706Z,56.89
2018-08-25T02:01:26.088Z,56.95
2018-08-25T02:03:54.488Z,56.36
2018-08-25T02:06:22.812Z,56.72
2018-08-25T02:08:51.131Z,56.94
2018-08-25T02:11:19.452Z,57.40
2018-08-25T02:13:47.771Z,57.35
2018-08-25T02:16:16.079Z,57.59
2018-08-25T02:18:44.383Z,57.43
2018-08-25T02:21:12.683Z,58.01
2018-08-25T02:23:40.980Z,57.61
2018-08-25T02:26:09.288Z,58.23
2018-08-25T02:28:37.692Z,58.24
2018-08-25T02:31:06.445Z,58.37
2018-08-25T02:33:34.764Z,57.52
2018-08-25T02:36:03.086Z,58.47
2018-08-25T02:38:31.438Z,57.97
2018-08-25T02:40:59.720Z,57.34
2018-08-25T02:43:28.063Z,57.99
2018-08-25T02:45:56.392Z,58.18
2018-08-25T02:48:24.722Z,58.03
2018-08-25T02:50:53.066Z,57.09
2018-08-25T02:53:21.392Z,57.65
2018-08-25T02:55:49.685Z,58.17
2018-08-25T02:58:18.106Z,58.10
2018-08-25T03:00:46.461Z,58.30
2018-08-25T03:03:14.782Z,58.53
2018-08-25T03:05:43.101Z,58.04
2018-08-25T03:08:11.438Z,59.13
2018-08-25T03:10:39.757Z,59.67
2018-08-25T03:13:08.340Z,60.29
2018-08-25T03:15:36.706Z,61.60
2018-08-25T03:18:05.284Z,61.78
2018-08-25T03:20:33.578Z,62.57
2018-08-25T03:23:01.875Z,63.42
2018-08-25T03:25:30.148Z,63.21
2018-08-25T03:27:58.756Z,63.77
2018-08-25T03:30:27.120Z,64.22
2018-08-25T03:32:55.476Z,65.29
2018-08-25T03:35:23.786Z,65.28
2018-08-25T03:37:52.239Z,64.55
2018-08-25T03:40:20.524Z,64.15
2018-08-25T03:42:48.883Z,65.64
2018-08-25T03:45:17.197Z,66.12
2018-08-25T03:47:45.520Z,67.83
2018-08-25T03:50:13.819Z,68.78
2018-08-25T03:52:42.121Z,68.41
2018-08-25T03:55:10.499Z,68.72
2018-08-25T03:57:38.778Z,69.37
2018-08-25T04:00:07.163Z,69.97
2018-08-25T04:02:35.697Z,70.67
2018-08-25T04:05:04.048Z,72.32
2018-08-25T04:07:32.414Z,73.11
2018-08-25T04:10:00.744Z,72.89
2018-08-25T04:12:29.062Z,74.70
2018-08-25T04:14:57.420Z,76.10
2018-08-25T04:17:25.676Z,76.48
2018-08-25T04:19:53.975Z,77.64
2018-08-25T04:22:22.342Z,77.46
2018-08-25T04:24:50.581Z,79.28
2018-08-25T04:27:19.008Z,79.28
2018-08-25T04:29:47.592Z,79.71
2018-08-25T04:32:15.878Z,80.87
2018-08-25T04:34:44.200Z,80.40
2018-08-25T04:37:12.622Z,80.88
2018-08-25T04:39:40.936Z,81.74
2018-08-25T04:42:09.267Z,81.60
2018-08-25T04:44:37.569Z,82.23
2018-08-25T04:47:06.558Z,82.76
2018-08-25T04:49:34.953Z,82.31
2018-08-25T04:52:03.284Z,82.63
2018-08-25T04:54:31.649Z,82.97
2018-08-25T04:57:00.047Z,82.91
2018-08-25T04:59:28.490Z,82.95
2018-08-25T05:01:56.819Z,83.34
2018-08-25T05:04:25.123Z,83.58
2018-08-25T05:06:53.446Z,83.40
2018-08-25T05:09:21.749Z,83.80
2018-08-25T05:11:50.052Z,83.84
2018-08-25T05:14:18.401Z,83.95
2018-08-25T05:16:46.746Z,84.12
2018-08-25T05:19:15.103Z,84.20
2018-08-25T05:21:43.404Z,84.44
2018-08-25T05:24:11.741Z,84.12
2018-08-25T05:26:40.066Z,84.94
2018-08-25T05:29:08.424Z,85.01
2018-08-25T05:31:36.730Z,84.35
2018-08-25T05:34:05.070Z,84.03
2018-08-25T05:36:33.373Z,84.59
2018-08-25T05:39:01.695Z,84.57
2018-08-25T05:41:29.989Z,84.16
2018-08-25T05:43:58.309Z,84.51
2018-08-25T05:46:26.654Z,84.70
2018-08-25T05:48:54.951Z,84.27
2018-08-25T05:51:23.263Z,84.28
2018-08-25T05:53:51.646Z,84.62
2018-08-25T05:56:19.956Z,84.37
2018-08-25T05:58:48.276Z,85.13
2018-08-25T06:01:16.702Z,85.40
2018-08-25T06:03:45.016Z,84.62
2018-08-25T06:06:13.461Z,84.43
2018-08-25T06:08:41.789Z,84.90
2018-08-25T06:11:10.137Z,85.36
2018-08-25T06:13:38.494Z,84.92
2018-08-25T06:16:06.835Z,85.26
2018-08-25T06:18:35.262Z,84.79
2018-08-25T06:21:03.661Z,83.53
2018-08-25T06:23:31.964Z,82.73
2018-08-25T06:26:00.348Z,82.61
2018-08-25T06:28:28.696Z,82.28
2018-08-25T06:30:57.031Z,82.77
2018-08-25T06:33:25.358Z,82.71
2018-08-25T06:35:53.697Z,82.76
2018-08-25T06:38:22.001Z,82.35
2018-08-25T06:40:50.357Z,82.64
2018-08-25T06:43:18.643Z,81.62
2018-08-25T06:45:51.097Z,81.80
2018-08-25T06:48:19.557Z,82.34
2018-08-25T06:50:47.853Z,81.52
2018-08-25T06:53:16.271Z,81.66
2018-08-25T06:55:44.727Z,82.25
2018-08-25T06:58:13.176Z,80.58
2018-08-25T07:00:41.456Z,81.66
2018-08-25T07:03:09.753Z,80.70
2018-08-25T07:05:38.128Z,81.01
2018-08-25T07:08:06.531Z,78.96
2018-08-25T07:10:34.838Z,78.47
2018-08-25T07:13:03.356Z,76.81
2018-08-25T07:15:31.656Z,77.08
2018-08-25T07:17:59.996Z,77.81
2018-08-25T07:20:28.321Z,77.22
2018-08-25T07:22:56.620Z,76.79
2018-08-25T07:25:24.960Z,76.61
2018-08-25T07:27:53.262Z,76.77
2018-08-25T07:30:21.606Z,73.86
2018-08-25T07:32:49.908Z,73.95
2018-08-25T07:35:18.259Z,75.26
2018-08-25T07:37:46.668Z,73.60
2018-08-25T07:40:14.956Z,73.31
2018-08-25T07:42:43.349Z,70.65
2018-08-25T07:45:11.775Z,71.14
2018-08-25T07:47:40.092Z,73.54
2018-08-25T07:50:08.889Z,73.75
2018-08-25T07:52:37.383Z,73.35
2018-08-25T07:55:11.069Z,73.15
2018-08-25T07:57:47.489Z,72.41
2018-08-25T08:00:16.132Z,71.08
2018-08-25T08:02:44.456Z,71.13
2018-08-25T08:05:12.811Z,70.87
2018-08-25T08:07:41.429Z,71.56
2018-08-25T08:10:09.975Z,72.63
2018-08-25T08:12:38.306Z,70.42
2018-08-25T08:15:06.987Z,71.23
2018-08-25T08:17:35.451Z,72.31
2018-08-25T08:20:04.023Z,70.91
2018-08-25T08:22:32.429Z,71.42
2018-08-25T08:25:00.740Z,69.83
2018-08-25T08:27:29.068Z,69.24
2018-08-25T08:29:57.398Z,68.79
2018-08-25T08:32:25.684Z,66.79
2018-08-25T08:34:54.036Z,67.07
2018-08-25T08:37:22.408Z,66.02
2018-08-25T08:39:50.754Z,67.93
2018-08-25T08:42:19.117Z,69.49
2018-08-25T08:44:47.437Z,68.60
2018-08-25T08:47:15.882Z,68.38
2018-08-25T08:49:47.278Z,68.75
2018-08-25T08:52:12.692Z,70.20
2018-08-25T08:54:41.063Z,69.93
2018-08-25T08:57:09.485Z,70.45
2018-08-25T08:59:37.805Z,70.61
2018-08-25T09:02:06.431Z,68.39
2018-08-25T09:04:34.787Z,69.14
2018-08-25T09:07:03.203Z,68.43
2018-08-25T09:09:31.520Z,71.31
2018-08-25T09:12:00.240Z,73.52
2018-08-25T09:14:28.581Z,74.56
2018-08-25T09:16:56.905Z,76.89
2018-08-25T09:19:25.285Z,78.51
2018-08-25T09:21:53.632Z,79.64
2018-08-25T09:24:21.998Z,80.20
2018-08-25T09:26:50.419Z,79.46
2018-08-25T09:29:18.687Z,79.66
2018-08-25T09:31:47.083Z,76.99
2018-08-25T09:34:15.418Z,77.71
2018-08-25T09:36:43.804Z,77.36
2018-08-25T09:39:12.109Z,77.59
2018-08-25T09:41:40.848Z,78.18
2018-08-25T09:44:09.155Z,76.78
2018-08-25T09:46:37.538Z,75.35
2018-08-25T09:49:05.871Z,75.52
2018-08-25T09:51:34.156Z,72.83
2018-08-25T09:54:02.513Z,74.97
2018-08-25T09:56:30.827Z,74.43
2018-08-25T09:58:59.479Z,75.24
2018-08-25T10:01:32.412Z,74.96
2018-08-25T10:04:00.951Z,73.33
2018-08-25T10:06:29.229Z,70.06
2018-08-25T10:08:57.529Z,71.89
2018-08-25T10:11:25.818Z,71.43
2018-08-25T10:13:54.152Z,71.19
2018-08-25T10:16:22.719Z,70.75
2018-08-25T10:18:51.053Z,71.28
2018-08-25T10:21:19.426Z,69.45
2018-08-25T10:23:47.749Z,70.69
2018-08-25T10:26:16.079Z,70.80
2018-08-25T10:28:44.418Z,70.20
2018-08-25T10:31:12.720Z,68.86
2018-08-25T10:33:41.040Z,69.72
2018-08-25T10:36:09.408Z,69.37
2018-08-25T10:38:37.790Z,70.10
2018-08-25T10:41:06.375Z,70.50
2018-08-25T10:43:34.747Z,68.63
2018-08-25T10:46:03.063Z,67.13
2018-08-25T10:48:31.376Z,65.05
2018-08-25T10:50:59.788Z,63.83
2018-08-25T10:53:28.203Z,62.83
2018-08-25T10:55:56.520Z,63.88
2018-08-25T10:58:24.860Z,65.45
2018-08-25T11:00:53.318Z,63.82
2018-08-25T11:03:21.626Z,63.23
2018-08-25T11:05:49.952Z,61.36
2018-08-25T11:08:18.293Z,62.64
2018-08-25T11:10:46.637Z,62.04
2018-08-25T11:13:15.037Z,61.82
2018-08-25T11:15:43.341Z,60.90
2018-08-25T11:18:11.720Z,59.09
2018-08-25T11:20:40.002Z,56.34
2018-08-25T11:23:08.327Z,57.30
2018-08-25T11:25:36.632Z,57.32
2018-08-25T11:28:04.931Z,57.10
2018-08-25T11:30:33.289Z,56.31
2018-08-25T11:33:01.615Z,57.19
2018-08-25T11:35:30.023Z,57.16
2018-08-25T11:37:58.487Z,57.18
2018-08-25T11:40:26.758Z,55.69
2018-08-25T11:42:55.058Z,54.25
2018-08-25T11:45:23.357Z,54.88
2018-08-25T11:47:51.686Z,54.90
2018-08-25T11:50:20.063Z,53.31
2018-08-25T11:52:48.412Z,54.23
2018-08-25T11:55:16.746Z,53.03
2018-08-25T11:57:45.040Z,52.67
2018-08-25T12:00:13.403Z,52.08
2018-08-25T12:02:41.706Z,51.28
2018-08-25T12:05:10.083Z,51.41
2018-08-25T12:07:38.547Z,52.57
2018-08-25T12:10:06.889Z,52.93
2018-08-25T12:12:35.202Z,53.10
2018-08-25T12:15:03.574Z,50.99
2018-08-25T12:17:31.969Z,52.01
2018-08-25T12:20:00.376Z,52.25
2018-08-25T12:22:28.712Z,52.87
2018-08-25T12:24:57.237Z,53.97
2018-08-25T12:27:25.573Z,54.39
2018-08-25T12:29:53.913Z,55.11
2018-08-25T12:32:22.273Z,54.89
2018-08-25T12:34:50.626Z,54.39
2018-08-25T12:37:19.036Z,54.93
2018-08-25T12:39:47.395Z,55.54
2018-08-25T12:42:15.723Z,55.73
2018-08-25T12:44:44.029Z,54.36
2018-08-25T12:47:12.344Z,55.93
2018-08-25T12:49:40.626Z,56.28
2018-08-25T12:52:09.003Z,58.48
2018-08-25T12:54:37.303Z,56.99
2018-08-25T12:57:05.654Z,58.41
2018-08-25T12:59:33.989Z,57.51
2018-08-25T13:02:02.384Z,59.50
2018-08-25T13:04:30.804Z,61.71
2018-08-25T13:06:59.154Z,64.30
2018-08-25T13:09:27.457Z,65.67
2018-08-25T13:11:55.737Z,67.78
2018-08-25T13:14:24.067Z,68.71
2018-08-25T13:16:52.541Z,70.19
2018-08-25T13:19:20.880Z,71.48
2018-08-25T13:21:49.187Z,71.64
2018-08-25T13:24:17.549Z,71.49
2018-08-25T13:26:45.895Z,71.75
2018-08-25T13:29:14.228Z,70.84
2018-08-25T13:31:42.524Z,72.73
2018-08-25T13:34:10.807Z,72.51
2018-08-25T13:36:39.132Z,71.07
2018-08-25T13:39:09.760Z,70.22
2018-08-25T13:41:38.745Z,70.46
2018-08-25T13:44:07.369Z,70.45
2018-08-25T13:46:35.630Z,69.58
2018-08-25T13:49:04.021Z,70.54
2018-08-25T13:51:32.324Z,71.13
2018-08-25T13:54:00.672Z,68.99
2018-08-25T13:56:29.644Z,70.91
2018-08-25T13:58:58.126Z,72.36
2018-08-25T14:01:26.583Z,65.78
2018-08-25T14:03:54.946Z,64.81
2018-08-25T14:06:23.345Z,64.27
2018-08-25T14:08:51.656Z,64.05
2018-08-25T14:11:20.011Z,62.54
2018-08-25T14:13:48.485Z,62.29
2018-08-25T14:16:16.969Z,62.35
2018-08-25T14:18:45.240Z,62.20
2018-08-25T14:21:13.570Z,63.23
2018-08-25T14:23:41.869Z,61.82
2018-08-25T14:26:10.391Z,63.22
2018-08-25T14:28:38.715Z,61.29
2018-08-25T14:31:07.028Z,61.31
2018-08-25T14:33:35.324Z,60.89
2018-08-25T14:36:03.738Z,61.53
2018-08-25T14:38:32.105Z,61.83
2018-08-25T14:41:00.422Z,62.86
2018-08-25T14:43:28.747Z,64.12
2018-08-25T14:45:57.328Z,64.92
2018-08-25T14:48:25.723Z,66.19
2018-08-25T14:50:54.043Z,66.63
2018-08-25T14:53:22.330Z,65.28
2018-08-25T14:55:50.627Z,66.56
2018-08-25T14:58:18.950Z,66.65
2018-08-25T15:00:47.322Z,66.47
2018-08-25T15:03:15.841Z,65.79
2018-08-25T15:05:44.135Z,65.05
2018-08-25T15:08:12.473Z,64.58
2018-08-25T15:10:40.826Z,64.17
2018-08-25T15:13:09.168Z,65.64
2018-08-25T15:15:37.490Z,64.54
2018-08-25T15:18:05.896Z,65.47
2018-08-25T15:20:34.245Z,64.48
2018-08-25T15:23:02.666Z,62.96
2018-08-25T15:25:31.002Z,64.70
2018-08-25T15:27:59.336Z,65.10
2018-08-25T15:30:27.700Z,64.30
2018-08-25T15:32:56.144Z,63.04
2018-08-25T15:35:24.462Z,62.60
2018-08-25T15:37:52.814Z,64.01
2018-08-25T15:40:21.131Z,63.67
2018-08-25T15:42:49.436Z,62.67
2018-08-25T15:45:17.741Z,63.27
2018-08-25T15:47:46.029Z,61.86
2018-08-25T15:50:14.351Z,61.39
2018-08-25T15:52:42.676Z,61.44
2018-08-25T15:55:11.162Z,60.84
2018-08-25T15:57:39.488Z,60.35
2018-08-25T16:00:07.965Z,61.04
2018-08-25T16:02:37.266Z,59.36
2018-08-25T16:05:05.831Z,59.42
2018-08-25T16:07:34.192Z,59.16
2018-08-25T16:10:03.042Z,59.22
2018-08-25T16:12:31.474Z,59.60
2018-08-25T16:14:59.753Z,60.67
2018-08-25T16:17:28.100Z,60.29
2018-08-25T16:19:56.593Z,61.28
2018-08-25T16:22:24.713Z,60.99
2018-08-25T16:24:53.152Z,61.20
2018-08-25T16:27:21.520Z,62.76
2018-08-25T16:29:49.866Z,64.86
2018-08-25T16:32:18.157Z,61.45
2018-08-25T16:34:46.558Z,62.44
2018-08-25T16:37:14.915Z,64.19
2018-08-25T16:39:43.362Z,63.13
2018-08-25T16:42:11.711Z,62.89
2018-08-25T16:44:40.328Z,63.71
2018-08-25T16:47:08.660Z,64.49
2018-08-25T16:49:37.000Z,65.19
2018-08-25T16:52:05.415Z,64.84
2018-08-25T16:54:33.839Z,65.93
2018-08-25T16:57:02.131Z,65.49
2018-08-25T16:59:30.464Z,66.01
2018-08-25T17:01:58.858Z,67.20
2018-08-25T17:04:27.387Z,67.02
2018-08-25T17:06:55.682Z,67.04
2018-08-25T17:09:24.041Z,68.27
2018-08-25T17:11:52.348Z,69.35
2018-08-25T17:14:20.667Z,70.34
2018-08-25T17:16:49.054Z,70.76
2018-08-25T17:19:17.381Z,70.47
2018-08-25T17:21:45.719Z,71.29
2018-08-25T17:24:14.071Z,70.62
2018-08-25T17:26:42.457Z,71.51
2018-08-25T17:29:10.785Z,72.07
2018-08-25T17:31:39.111Z,71.25
2018-08-25T17:34:07.457Z,71.62
2018-08-25T17:36:35.732Z,72.75
2018-08-25T17:39:06.596Z,73.18
2018-08-25T17:41:34.920Z,73.55
2018-08-25T17:44:03.235Z,73.57
2018-08-25T17:46:31.587Z,73.53
2018-08-25T17:48:59.876Z,75.31
2018-08-25T17:51:28.202Z,74.41
2018-08-25T17:53:56.524Z,74.77
2018-08-25T17:56:24.886Z,75.47
2018-08-25T17:58:53.184Z,75.19
2018-08-25T18:01:21.509Z,75.45
2018-08-25T18:03:49.895Z,76.00
2018-08-25T18:06:18.219Z,76.84
2018-08-25T18:08:46.600Z,77.15
2018-08-25T18:11:15.087Z,77.03
2018-08-25T18:13:43.503Z,77.87
2018-08-25T18:16:11.831Z,77.75
2018-08-25T18:18:40.137Z,78.77
2018-08-25T18:21:08.487Z,78.03
2018-08-25T18:23:36.829Z,78.69
2018-08-25T18:26:05.345Z,78.96
2018-08-25T18:28:33.635Z,79.10
2018-08-25T18:31:01.973Z,79.00
2018-08-25T18:33:30.325Z,79.53
2018-08-25T18:35:58.743Z,79.45
2018-08-25T18:38:27.085Z,80.20
2018-08-25T18:40:55.403Z,79.78
2018-08-25T18:43:23.755Z,80.81
2018-08-25T18:45:52.071Z,79.85
2018-08-25T18:48:20.730Z,79.94
2018-08-25T18:50:49.008Z,79.74
2018-08-25T18:53:17.328Z,79.59
2018-08-25T18:55:46.230Z,77.45
2018-08-25T18:58:14.676Z,78.48
2018-08-25T19:00:43.120Z,76.84
2018-08-25T19:03:11.475Z,76.24
2018-08-25T19:05:39.833Z,76.53
2018-08-25T19:08:08.180Z,77.08
2018-08-25T19:10:36.503Z,76.75
2018-08-25T19:13:04.900Z,76.38
2018-08-25T19:15:33.217Z,76.61
2018-08-25T19:18:01.521Z,77.09
2018-08-25T19:20:29.850Z,76.77
2018-08-25T19:22:58.153Z,76.80
2018-08-25T19:25:26.480Z,77.25
2018-08-25T19:27:54.803Z,77.27
2018-08-25T19:30:23.135Z,77.57
2018-08-25T19:32:51.505Z,77.95
2018-08-25T19:35:19.889Z,77.97
2018-08-25T19:37:48.199Z,77.80
2018-08-25T19:40:16.593Z,78.42
2018-08-25T19:42:44.959Z,78.40
2018-08-25T19:45:13.306Z,78.21
2018-08-25T19:47:41.631Z,78.85
2018-08-25T19:50:09.956Z,79.25
2018-08-25T19:52:38.350Z,79.40
2018-08-25T19:55:06.718Z,79.53
2018-08-25T19:57:35.040Z,79.54
2018-08-25T20:00:03.463Z,79.84
2018-08-25T20:02:31.800Z,80.00
2018-08-25T20:05:00.237Z,80.01
2018-08-25T20:07:28.565Z,79.69
2018-08-25T20:09:56.914Z,79.34
2018-08-25T20:12:25.267Z,79.64
2018-08-25T20:14:53.619Z,79.46
2018-08-25T20:17:22.108Z,79.91
2018-08-25T20:19:50.509Z,79.25
2018-08-25T20:22:19.973Z,80.16
2018-08-25T20:24:48.315Z,79.75
2018-08-25T20:27:16.656Z,79.61
2018-08-25T20:29:44.971Z,79.68
2018-08-25T20:32:13.382Z,79.46
2018-08-25T20:34:41.724Z,79.48
2018-08-25T20:37:10.249Z,80.02
2018-08-25T20:39:38.592Z,79.59
2018-08-25T20:42:06.937Z,79.58
2018-08-25T20:44:35.299Z,79.68
2018-08-25T20:47:03.958Z,80.31
2018-08-25T20:49:32.276Z,80.22
2018-08-25T20:52:00.626Z,80.18
2018-08-25T20:54:28.954Z,80.13
2018-08-25T20:56:57.315Z,80.06
2018-08-25T20:59:25.664Z,80.29
2018-08-25T21:01:53.977Z,79.94
2018-08-25T21:04:22.277Z,80.56
2018-08-25T21:06:50.646Z,80.11
2018-08-25T21:09:19.050Z,80.46
2018-08-25T21:11:47.411Z,79.78
2018-08-25T21:14:15.749Z,79.63
2018-08-25T21:16:44.102Z,80.56
2018-08-25T21:19:12.445Z,80.26
2018-08-25T21:21:40.780Z,79.97
2018-08-25T21:24:09.119Z,80.30
2018-08-25T21:26:37.420Z,80.22
2018-08-25T21:29:06.005Z,79.71
2018-08-25T21:31:34.295Z,80.35
2018-08-25T21:34:02.891Z,79.57
2018-08-25T21:36:31.189Z,79.30
2018-08-25T21:38:59.482Z,79.37
2018-08-25T21:41:27.794Z,79.45
2018-08-25T21:43:56.198Z,79.45
2018-08-25T21:46:24.532Z,79.19
2018-08-25T21:48:52.864Z,79.19
2018-08-25T21:51:21.188Z,79.65
2018-08-25T21:53:49.516Z,79.56
2018-08-25T21:56:17.830Z,79.67
2018-08-25T21:58:46.241Z,79.37
2018-08-25T22:01:14.611Z,80.01
2018-08-25T22:03:42.882Z,80.33
2018-08-25T22:06:11.647Z,80.51
2018-08-25T22:08:39.992Z,79.83
2018-08-25T22:11:08.394Z,79.72
2018-08-25T22:13:36.740Z,80.31
2018-08-25T22:16:05.051Z,80.22
2018-08-25T22:18:33.413Z,80.38
2018-08-25T22:21:01.750Z,80.43
2018-08-25T22:23:30.152Z,80.39
2018-08-25T22:25:58.493Z,80.51
2018-08-25T22:28:26.809Z,80.41
2018-08-25T22:30:55.272Z,80.69
2018-08-25T22:33:23.579Z,80.91
2018-08-25T22:35:51.895Z,81.04
2018-08-25T22:38:20.377Z,81.30
2018-08-25T22:40:48.696Z,81.86
2018-08-25T22:43:17.042Z,81.72
2018-08-25T22:45:45.355Z,81.22
2018-08-25T22:48:13.734Z,81.86
2018-08-25T22:50:42.112Z,81.37
2018-08-25T22:53:10.496Z,81.42
2018-08-25T22:55:38.792Z,81.63
2018-08-25T22:58:07.127Z,81.78
2018-08-25T23:00:35.446Z,81.73
2018-08-25T23:03:03.800Z,81.78
2018-08-25T23:05:32.095Z,81.78
2018-08-25T23:08:00.720Z,81.85
2018-08-25T23:10:29.101Z,81.73
2018-08-25T23:12:57.394Z,81.32
2018-08-25T23:15:25.758Z,81.59
2018-08-25T23:17:54.116Z,82.00
2018-08-25T23:20:22.464Z,81.53
2018-08-25T23:22:50.754Z,82.13
2018-08-25T23:25:19.061Z,82.20
2018-08-25T23:27:47.450Z,81.45
2018-08-25T23:30:15.818Z,81.71
2018-08-25T23:32:44.167Z,82.33
2018-08-25T23:35:12.488Z,81.51
2018-08-25T23:37:40.781Z,82.17
2018-08-25T23:40:09.339Z,82.23
2018-08-25T23:42:37.692Z,82.67
2018-08-25T23:45:06.105Z,82.45
2018-08-25T23:47:34.588Z,82.29
2018-08-25T23:50:03.116Z,82.42
2018-08-25T23:52:34.823Z,82.74
2018-08-25T23:55:03.955Z,82.65
2018-08-25T23:57:32.324Z,82.25
